createdAt,value
2023-10-23T00:01:39.699Z,1.60
2023-10-23T00:04:11.330Z,1.90
2023-10-23T00:06:42.404Z,1.10
2023-10-23T00:09:13.425Z,1.70
2023-10-23T00:11:44.180Z,1.30
2023-10-23T00:14:15.267Z,1.70
2023-10-23T00:16:46.074Z,1.10
2023-10-23T00:19:17.198Z,1.40
2023-10-23T00:21:47.992Z,1.70
2023-10-23T00:24:18.796Z,1.80
2023-10-23T00:26:49.598Z,1.00
2023-10-23T00:29:20.367Z,0.80
2023-10-23T00:31:51.108Z,1.00
2023-10-23T00:34:22.370Z,0.80
2023-10-23T00:36:53.219Z,0.80
2023-10-23T00:39:23.999Z,0.80
2023-10-23T00:41:54.805Z,1.30
2023-10-23T00:44:25.586Z,1.00
2023-10-23T00:46:56.702Z,0.70
2023-10-23T00:49:27.571Z,0.80
2023-10-23T00:51:58.850Z,0.80
2023-10-23T00:54:29.900Z,0.90
2023-10-23T00:57:00.807Z,0.80
2023-10-23T00:59:31.642Z,0.80
2023-10-23T01:02:04.515Z,1.20
2023-10-23T01:04:35.314Z,0.70
2023-10-23T01:07:06.373Z,1.50
2023-10-23T01:09:37.154Z,1.00
2023-10-23T01:12:09.483Z,0.80
2023-10-23T01:14:40.225Z,0.90
2023-10-23T01:17:10.981Z,0.70
2023-10-23T01:19:41.701Z,0.80
2023-10-23T01:22:12.496Z,1.00
2023-10-23T01:24:47.372Z,0.70
2023-10-23T01:27:18.228Z,1.50
2023-10-23T01:29:48.982Z,0.70
2023-10-23T01:32:19.732Z,1.10
2023-10-23T01:34:50.398Z,0.70
2023-10-23T01:37:21.134Z,0.60
2023-10-23T01:39:51.986Z,0.90
2023-10-23T01:42:22.938Z,0.90
2023-10-23T01:44:53.654Z,1.10
2023-10-23T01:47:24.338Z,0.80
2023-10-23T01:49:55.391Z,1.00
2023-10-23T01:52:26.074Z,0.80
2023-10-23T01:54:56.940Z,1.10
2023-10-23T01:57:27.727Z,1.00
2023-10-23T02:00:05.385Z,1.00
2023-10-23T02:02:36.232Z,0.80
2023-10-23T02:05:07.443Z,0.90
2023-10-23T02:07:38.197Z,1.10
2023-10-23T02:10:10.654Z,1.10
2023-10-23T02:12:41.428Z,0.90
2023-10-23T02:15:13.929Z,0.80
2023-10-23T02:17:45.127Z,0.90
2023-10-23T02:20:16.257Z,0.90
2023-10-23T02:22:47.023Z,1.10
2023-10-23T02:25:18.310Z,0.60
2023-10-23T02:27:49.099Z,0.90
2023-10-23T02:30:20.365Z,1.10
2023-10-23T02:32:51.127Z,0.60
2023-10-23T02:35:21.948Z,0.60
2023-10-23T02:37:52.736Z,0.60
2023-10-23T02:40:23.471Z,0.70
2023-10-23T02:42:54.281Z,1.00
2023-10-23T02:45:25.252Z,0.70
2023-10-23T02:47:56.177Z,1.00
2023-10-23T02:50:27.094Z,1.10
2023-10-23T02:52:58.595Z,1.30
2023-10-23T02:55:30.592Z,0.80
2023-10-23T02:58:01.540Z,1.60
2023-10-23T03:00:32.536Z,1.50
2023-10-23T03:03:03.440Z,1.60
2023-10-23T03:05:35.323Z,2.30
2023-10-23T03:08:07.082Z,1.60
2023-10-23T03:10:37.944Z,1.60
2023-10-23T03:13:08.711Z,1.40
2023-10-23T03:15:41.929Z,1.10
2023-10-23T03:18:12.965Z,1.20
2023-10-23T03:20:43.983Z,1.20
2023-10-23T03:23:14.756Z,1.50
2023-10-23T03:25:47.345Z,2.00
2023-10-23T03:28:18.123Z,2.30
2023-10-23T03:30:49.223Z,2.80
2023-10-23T03:33:20.044Z,2.30
2023-10-23T03:35:51.837Z,2.50
2023-10-23T03:38:22.628Z,4.00
2023-10-23T03:41:01.083Z,3.00
2023-10-23T03:43:32.079Z,1.40
2023-10-23T03:46:06.418Z,1.20
2023-10-23T03:48:39.042Z,1.30
2023-10-23T03:51:09.820Z,2.10
2023-10-23T03:53:40.602Z,1.20
2023-10-23T03:56:11.442Z,1.40
2023-10-23T03:58:42.792Z,1.40
2023-10-23T04:01:13.646Z,2.00
2023-10-23T04:03:44.706Z,0.80
2023-10-23T04:06:15.559Z,0.60
2023-10-23T04:08:46.356Z,0.90
2023-10-23T04:11:18.331Z,1.10
2023-10-23T04:13:49.291Z,0.70
2023-10-23T04:16:20.602Z,0.90
2023-10-23T04:18:51.845Z,0.80
2023-10-23T04:21:30.444Z,1.00
2023-10-23T04:24:01.311Z,1.00
2023-10-23T04:26:32.057Z,0.90
2023-10-23T04:29:02.860Z,1.40
2023-10-23T04:31:33.685Z,1.10
2023-10-23T04:34:04.579Z,2.20
2023-10-23T04:36:35.563Z,1.10
2023-10-23T04:39:06.693Z,1.10
2023-10-23T04:41:37.462Z,0.90
2023-10-23T04:44:08.889Z,1.60
2023-10-23T04:46:39.684Z,1.20
2023-10-23T04:49:10.506Z,2.60
2023-10-23T04:51:41.338Z,1.40
2023-10-23T04:54:12.894Z,1.30
2023-10-23T04:56:44.482Z,1.10
2023-10-23T04:59:15.248Z,1.50
2023-10-23T05:01:46.115Z,1.30
2023-10-23T05:04:17.047Z,0.80
2023-10-23T05:06:48.021Z,0.90
2023-10-23T05:09:19.028Z,1.10
2023-10-23T05:11:50.065Z,1.20
2023-10-23T05:14:20.806Z,0.90
2023-10-23T05:16:51.583Z,1.00
2023-10-23T05:19:23.349Z,1.20
2023-10-23T05:21:54.114Z,1.30
2023-10-23T05:24:24.934Z,1.30
2023-10-23T05:26:55.716Z,1.30
2023-10-23T05:29:26.492Z,0.90
2023-10-23T05:31:57.280Z,1.10
2023-10-23T05:34:28.102Z,1.10
2023-10-23T05:36:58.928Z,0.90
2023-10-23T05:39:29.975Z,1.40
2023-10-23T05:42:00.818Z,2.10
2023-10-23T05:44:31.660Z,1.70
2023-10-23T05:47:02.566Z,1.20
2023-10-23T05:49:35.497Z,1.00
2023-10-23T05:52:06.864Z,1.10
2023-10-23T05:54:37.678Z,1.10
2023-10-23T05:57:08.698Z,1.20
2023-10-23T05:59:39.841Z,1.10
2023-10-23T06:02:12.016Z,1.40
2023-10-23T06:04:48.446Z,1.60
2023-10-23T06:07:19.343Z,1.50
2023-10-23T06:09:50.402Z,2.00
2023-10-23T06:12:21.239Z,1.80
2023-10-23T06:14:52.017Z,1.10
2023-10-23T06:17:22.834Z,1.70
2023-10-23T06:19:53.745Z,1.60
2023-10-23T06:22:24.555Z,1.20
2023-10-23T06:24:55.773Z,1.40
2023-10-23T06:27:26.894Z,1.50
2023-10-23T06:29:57.601Z,1.40
2023-10-23T06:32:28.328Z,1.40
2023-10-23T06:34:59.036Z,1.50
2023-10-23T06:37:30.012Z,1.30
2023-10-23T06:40:00.886Z,1.30
2023-10-23T06:42:31.739Z,1.20
2023-10-23T06:45:02.671Z,1.50
2023-10-23T06:47:33.923Z,1.30
2023-10-23T06:50:06.365Z,1.80
2023-10-23T06:52:37.305Z,1.30
2023-10-23T06:55:09.835Z,1.30
2023-10-23T06:57:40.707Z,1.70
2023-10-23T07:00:13.330Z,1.30
2023-10-23T07:02:44.205Z,1.30
2023-10-23T07:05:15.008Z,0.80
2023-10-23T07:07:45.809Z,2.10
2023-10-23T07:10:16.566Z,1.50
2023-10-23T07:12:47.367Z,1.20
2023-10-23T07:15:18.269Z,1.00
2023-10-23T07:17:49.166Z,1.50
2023-10-23T07:20:20.172Z,1.80
2023-10-23T07:22:50.943Z,1.30
2023-10-23T07:25:21.748Z,2.00
2023-10-23T07:27:52.520Z,2.30
2023-10-23T07:30:25.593Z,2.20
2023-10-23T07:32:56.731Z,1.80
2023-10-23T07:35:30.018Z,1.90
2023-10-23T07:38:05.141Z,1.50
2023-10-23T07:40:35.900Z,1.70
2023-10-23T07:43:06.789Z,2.00
2023-10-23T07:45:43.310Z,2.00
2023-10-23T07:48:14.227Z,2.30
2023-10-23T07:50:45.067Z,1.80
2023-10-23T07:53:16.342Z,2.00
2023-10-23T07:55:47.105Z,1.90
2023-10-23T07:58:18.480Z,1.80
2023-10-23T08:00:52.736Z,2.10
2023-10-23T08:03:25.021Z,1.70
2023-10-23T08:05:55.977Z,1.50
2023-10-23T08:08:26.820Z,1.70
2023-10-23T08:10:57.659Z,1.30
2023-10-23T08:13:28.871Z,1.90
2023-10-23T08:16:01.383Z,1.70
2023-10-23T08:21:12.019Z,1.30
2023-10-23T08:23:43.776Z,1.60
2023-10-23T08:26:14.907Z,1.30
2023-10-23T08:31:34.200Z,1.40
2023-10-23T08:34:10.388Z,1.60
2023-10-23T08:36:41.506Z,1.50
2023-10-23T08:39:12.412Z,1.90
2023-10-23T08:41:43.344Z,1.70
2023-10-23T08:44:14.317Z,2.10
2023-10-23T08:46:45.508Z,1.70
2023-10-23T08:49:18.930Z,1.50
2023-10-23T08:51:53.759Z,1.80
2023-10-23T08:54:24.791Z,2.70
2023-10-23T08:56:59.412Z,1.80
2023-10-23T08:59:30.883Z,2.80
2023-10-23T09:02:02.400Z,1.90
2023-10-23T09:04:33.551Z,1.50
2023-10-23T09:07:04.614Z,1.40
2023-10-23T09:09:35.409Z,1.30
2023-10-23T09:12:07.596Z,1.40
2023-10-23T09:14:38.584Z,1.20
2023-10-23T09:17:10.198Z,1.00
2023-10-23T09:19:42.691Z,1.20
2023-10-23T09:22:13.795Z,1.90
2023-10-23T09:24:46.718Z,1.30
2023-10-23T09:27:18.341Z,2.00
2023-10-23T09:29:49.109Z,1.60
2023-10-23T09:32:20.012Z,1.10
2023-10-23T09:34:50.891Z,1.00
2023-10-23T09:37:21.758Z,1.10
2023-10-23T09:39:55.027Z,0.80
2023-10-23T09:42:34.457Z,1.30
2023-10-23T09:45:06.754Z,1.20
2023-10-23T09:47:37.634Z,0.60
2023-10-23T09:50:09.635Z,1.10
2023-10-23T09:52:42.182Z,1.20
2023-10-23T09:55:15.940Z,0.80
2023-10-23T09:57:52.366Z,0.70
2023-10-23T10:00:25.965Z,0.50
2023-10-23T10:03:01.452Z,1.10
2023-10-23T10:05:40.140Z,0.90
2023-10-23T10:08:15.648Z,1.30
2023-10-23T10:10:47.354Z,0.60
2023-10-23T10:13:18.446Z,0.80
2023-10-23T10:15:52.101Z,1.00
2023-10-23T10:18:24.376Z,0.90
2023-10-23T10:21:02.155Z,1.10
2023-10-23T10:23:36.305Z,0.80
2023-10-23T10:26:07.954Z,0.80
2023-10-23T10:28:41.671Z,1.00
2023-10-23T10:31:12.646Z,1.00
2023-10-23T10:34:28.202Z,1.40
2023-10-23T10:36:47.773Z,1.10
2023-10-23T10:39:19.288Z,1.00
2023-10-23T10:41:50.092Z,1.10
2023-10-23T10:44:21.769Z,1.20
2023-10-23T10:46:56.028Z,1.30
2023-10-23T10:49:27.796Z,1.50
2023-10-23T10:51:58.968Z,1.80
2023-10-23T10:54:36.008Z,1.40
2023-10-23T10:57:07.497Z,1.30
2023-10-23T10:59:41.008Z,1.50
2023-10-23T11:02:13.318Z,1.50
2023-10-23T11:04:44.230Z,1.80
2023-10-23T11:07:15.130Z,1.60
2023-10-23T11:09:46.010Z,1.40
2023-10-23T11:12:16.868Z,1.20
2023-10-23T11:14:48.465Z,1.60
2023-10-23T11:17:19.685Z,1.20
2023-10-23T11:19:50.495Z,1.10
2023-10-23T11:22:23.133Z,1.50
2023-10-23T11:24:54.160Z,1.40
2023-10-23T11:27:25.590Z,1.90
2023-10-23T11:29:56.797Z,1.30
2023-10-23T11:32:29.657Z,1.00
2023-10-23T11:35:05.471Z,1.90
2023-10-23T11:37:43.463Z,1.40
2023-10-23T11:40:20.943Z,1.60
2023-10-23T11:42:55.274Z,1.40
2023-10-23T11:45:26.300Z,1.10
2023-10-23T11:47:57.256Z,1.00
2023-10-23T11:50:30.048Z,0.90
2023-10-23T11:53:01.514Z,1.10
2023-10-23T11:55:33.597Z,1.00
2023-10-23T11:58:05.178Z,1.30
2023-10-23T12:00:39.848Z,0.90
2023-10-23T12:03:10.849Z,1.00
2023-10-23T12:05:41.733Z,1.00
2023-10-23T12:08:13.355Z,1.00
2023-10-23T12:10:44.132Z,0.80
2023-10-23T12:13:15.054Z,0.90
2023-10-23T12:15:45.918Z,1.20
2023-10-23T12:18:16.741Z,1.10
2023-10-23T12:20:47.628Z,1.60
2023-10-23T12:23:18.418Z,1.20
2023-10-23T12:25:49.180Z,0.90
2023-10-23T12:28:20.066Z,0.70
2023-10-23T12:30:51.512Z,1.20
2023-10-23T12:33:26.668Z,0.90
2023-10-23T12:36:05.199Z,1.20
2023-10-23T12:38:37.138Z,0.70
2023-10-23T12:41:08.064Z,0.80
2023-10-23T12:43:38.946Z,1.10
2023-10-23T12:46:10.638Z,0.90
2023-10-23T12:48:44.953Z,1.00
2023-10-23T12:51:16.103Z,0.80
2023-10-23T12:53:46.881Z,1.50
2023-10-23T12:56:17.684Z,0.80
2023-10-23T12:58:48.662Z,0.70
2023-10-23T13:01:19.655Z,0.80
2023-10-23T13:03:50.578Z,0.80
2023-10-23T13:06:21.510Z,0.70
2023-10-23T13:08:52.600Z,1.10
2023-10-23T13:11:23.502Z,1.40
2023-10-23T13:13:54.277Z,1.20
2023-10-23T13:16:27.409Z,1.20
2023-10-23T13:18:58.418Z,0.90
2023-10-23T13:21:34.185Z,1.00
2023-10-23T13:24:07.061Z,1.00
2023-10-23T13:26:39.299Z,0.80
2023-10-23T13:29:10.269Z,0.80
2023-10-23T13:31:41.061Z,0.90
2023-10-23T13:34:11.991Z,1.10
2023-10-23T13:36:42.834Z,0.90
2023-10-23T13:39:16.878Z,0.80
2023-10-23T13:41:48.498Z,0.80
2023-10-23T13:44:19.324Z,0.70
2023-10-23T13:46:50.232Z,1.00
2023-10-23T13:49:21.571Z,0.60
2023-10-23T13:51:52.400Z,0.40
2023-10-23T13:54:24.839Z,0.70
2023-10-23T13:56:55.575Z,0.50
2023-10-23T13:59:26.346Z,2.50
2023-10-23T14:01:57.169Z,0.50
2023-10-23T14:04:28.164Z,0.80
2023-10-23T14:06:59.036Z,0.80
2023-10-23T14:09:43.266Z,0.80
2023-10-23T14:12:16.409Z,0.90
2023-10-23T14:14:47.640Z,0.80
2023-10-23T14:17:18.503Z,0.80
2023-10-23T14:19:49.552Z,0.90
2023-10-23T14:22:20.380Z,0.70
2023-10-23T14:24:51.503Z,0.80
2023-10-23T14:27:22.426Z,1.30
2023-10-23T14:29:53.224Z,0.50
2023-10-23T14:32:24.077Z,0.60
2023-10-23T14:34:55.159Z,0.50
2023-10-23T14:37:26.275Z,1.10
2023-10-23T14:39:59.273Z,1.10
2023-10-23T14:42:31.104Z,1.00
2023-10-23T14:45:04.907Z,0.70
2023-10-23T14:47:36.209Z,1.40
2023-10-23T14:50:08.434Z,1.20
2023-10-23T14:52:39.289Z,1.30
2023-10-23T14:55:11.857Z,0.40
2023-10-23T14:57:42.719Z,0.90
2023-10-23T15:00:16.425Z,1.00
2023-10-23T15:02:47.210Z,1.90
2023-10-23T15:05:18.233Z,1.50
2023-10-23T15:07:49.020Z,1.00
2023-10-23T15:10:21.907Z,1.60
2023-10-23T15:12:52.884Z,1.20
2023-10-23T15:15:23.701Z,0.80
2023-10-23T15:17:54.637Z,0.90
2023-10-23T15:20:27.913Z,1.90
2023-10-23T15:22:58.862Z,2.00
2023-10-23T15:25:30.017Z,2.60
2023-10-23T15:28:00.852Z,2.10
2023-10-23T15:30:34.434Z,0.80
2023-10-23T15:33:06.437Z,1.10
2023-10-23T15:35:37.226Z,0.80
2023-10-23T15:38:07.983Z,1.10
2023-10-23T15:40:38.814Z,1.00
2023-10-23T15:43:09.617Z,1.10
2023-10-23T15:45:41.294Z,4.10
2023-10-23T15:48:12.139Z,3.50
2023-10-23T15:50:42.989Z,3.60
2023-10-23T15:53:13.752Z,1.50
2023-10-23T15:55:48.678Z,0.90
2023-10-23T15:58:19.382Z,1.20
2023-10-23T16:00:50.230Z,1.30
2023-10-23T16:03:21.715Z,2.00
2023-10-23T16:05:54.579Z,1.70
2023-10-23T16:08:25.306Z,2.50
2023-10-23T16:10:56.113Z,2.10
2023-10-23T16:13:31.628Z,1.90
2023-10-23T16:16:15.478Z,1.90
2023-10-23T16:18:48.034Z,1.10
2023-10-23T16:21:19.162Z,2.20
2023-10-23T16:23:50.249Z,2.60
2023-10-23T16:26:21.061Z,2.30
2023-10-23T16:28:51.750Z,2.60
2023-10-23T16:31:22.695Z,2.20
2023-10-23T16:33:53.616Z,2.30
2023-10-23T16:36:24.568Z,2.50
2023-10-23T16:38:55.323Z,3.10
2023-10-23T16:41:26.074Z,2.20
2023-10-23T16:43:56.777Z,1.10
2023-10-23T16:46:27.701Z,1.10
2023-10-23T16:48:58.580Z,2.10
2023-10-23T16:51:29.415Z,2.80
2023-10-23T16:54:00.186Z,2.70
2023-10-23T16:56:30.899Z,3.50
2023-10-23T16:59:01.822Z,3.30
2023-10-23T17:01:32.920Z,2.30
2023-10-23T17:04:03.819Z,1.30
2023-10-23T17:06:34.757Z,2.10
2023-10-23T17:09:05.675Z,2.20
2023-10-23T17:11:36.400Z,2.20
2023-10-23T17:14:07.730Z,2.40
2023-10-23T17:16:38.783Z,3.30
2023-10-23T17:19:10.293Z,2.90
2023-10-23T17:21:41.125Z,2.50
2023-10-23T17:24:12.276Z,1.90
2023-10-23T17:26:43.383Z,2.50
2023-10-23T17:29:14.090Z,1.40
2023-10-23T17:31:44.891Z,2.50
2023-10-23T17:34:15.726Z,2.60
2023-10-23T17:36:46.512Z,2.30
2023-10-23T17:39:17.184Z,2.30
2023-10-23T17:41:48.114Z,2.40
2023-10-23T17:44:19.476Z,2.50
2023-10-23T17:46:52.933Z,2.50
2023-10-23T17:49:23.964Z,2.80
2023-10-23T17:51:55.963Z,2.90
2023-10-23T17:54:26.785Z,3.30
2023-10-23T17:56:57.968Z,3.20
2023-10-23T17:59:28.718Z,2.30
2023-10-23T18:01:59.662Z,3.60
2023-10-23T18:04:30.925Z,2.60
2023-10-23T18:07:04.260Z,2.20
2023-10-23T18:09:35.098Z,1.70
2023-10-23T18:12:06.404Z,1.90
2023-10-23T18:14:37.366Z,1.60
2023-10-23T18:17:08.301Z,2.10
2023-10-23T18:19:39.413Z,1.60
2023-10-23T18:22:10.360Z,3.10
2023-10-23T18:24:41.161Z,2.60
2023-10-23T18:27:11.978Z,3.40
2023-10-23T18:29:42.792Z,3.10
2023-10-23T18:32:13.555Z,2.60
2023-10-23T18:34:44.409Z,2.60
2023-10-23T18:37:15.393Z,3.90
2023-10-23T18:39:46.167Z,2.20
2023-10-23T18:42:16.999Z,2.80
2023-10-23T18:44:47.810Z,2.10
2023-10-23T18:47:21.215Z,1.90
2023-10-23T18:49:52.691Z,2.50
2023-10-23T18:52:23.558Z,1.90
2023-10-23T18:54:54.565Z,3.00
2023-10-23T18:57:25.354Z,3.20
2023-10-23T18:59:56.109Z,5.30
2023-10-23T19:02:27.047Z,3.70
2023-10-23T19:04:58.121Z,3.10
2023-10-23T19:07:28.980Z,3.20
2023-10-23T19:10:00.379Z,2.80
2023-10-23T19:12:31.216Z,2.70
2023-10-23T19:15:02.153Z,2.20
2023-10-23T19:17:40.415Z,3.50
2023-10-23T19:20:14.209Z,4.00
2023-10-23T19:22:44.976Z,3.30
2023-10-23T19:25:15.927Z,3.10
2023-10-23T19:27:46.673Z,2.20
2023-10-23T19:30:17.978Z,2.80
2023-10-23T19:32:50.360Z,2.30
2023-10-23T19:35:22.896Z,3.00
2023-10-23T19:37:54.653Z,2.40
2023-10-23T19:40:27.978Z,2.60
2023-10-23T19:43:05.681Z,2.50
2023-10-23T19:45:37.830Z,3.00
2023-10-23T19:48:13.217Z,3.20
2023-10-23T19:50:48.760Z,5.30
2023-10-23T19:53:20.506Z,7.20
2023-10-23T19:55:53.337Z,3.70
2023-10-23T19:58:26.860Z,3.70
2023-10-23T20:00:57.828Z,3.80
2023-10-23T20:03:28.637Z,4.20
2023-10-23T20:05:59.450Z,3.30
2023-10-23T20:08:30.300Z,2.30
2023-10-23T20:11:01.633Z,2.40
2023-10-23T20:13:32.523Z,1.90
2023-10-23T20:16:05.900Z,2.20
2023-10-23T20:18:36.846Z,2.00
2023-10-23T20:21:07.818Z,2.70
2023-10-23T20:23:39.610Z,2.30
2023-10-23T20:26:16.672Z,1.30
2023-10-23T20:28:49.076Z,1.30
2023-10-23T20:31:23.209Z,1.60
2023-10-23T20:33:54.641Z,2.20
2023-10-23T20:36:25.669Z,3.70
2023-10-23T20:38:56.586Z,1.80
2023-10-23T20:41:27.397Z,2.30
2023-10-23T20:43:58.166Z,2.40
2023-10-23T20:46:29.719Z,2.00
2023-10-23T20:49:00.669Z,2.80
2023-10-23T20:51:31.509Z,2.00
2023-10-23T20:54:02.326Z,2.20
2023-10-23T20:56:33.096Z,2.60
2023-10-23T20:59:03.845Z,2.70
2023-10-23T21:01:34.960Z,2.40
2023-10-23T21:04:06.221Z,2.70
2023-10-23T21:06:37.030Z,2.60
2023-10-23T21:09:07.822Z,2.40
2023-10-23T21:11:38.595Z,1.50
2023-10-23T21:14:09.405Z,1.50
2023-10-23T21:16:40.281Z,1.60
2023-10-23T21:19:11.262Z,1.70
2023-10-23T21:21:44.416Z,1.70
2023-10-23T21:24:16.819Z,1.60
2023-10-23T21:26:47.589Z,1.60
2023-10-23T21:29:22.229Z,1.90
2023-10-23T21:31:54.798Z,1.30
2023-10-23T21:34:26.536Z,1.20
2023-10-23T21:36:57.375Z,1.20
2023-10-23T21:39:29.930Z,1.60
2023-10-23T21:42:03.263Z,1.70
2023-10-23T21:44:33.978Z,1.90
2023-10-23T21:47:04.992Z,1.40
2023-10-23T21:49:37.184Z,1.40
2023-10-23T21:52:09.981Z,1.60
2023-10-23T21:54:42.084Z,1.20
2023-10-23T21:57:22.983Z,1.60
2023-10-23T21:59:55.561Z,1.30
2023-10-23T22:02:27.502Z,1.30
2023-10-23T22:04:59.124Z,1.70
2023-10-23T22:07:30.718Z,2.30
2023-10-23T22:10:03.935Z,9.40
2023-10-23T22:12:35.782Z,5.30
2023-10-23T22:15:08.586Z,2.20
2023-10-23T22:17:39.473Z,1.80
2023-10-23T22:20:12.332Z,1.90
2023-10-23T22:22:43.447Z,1.50
2023-10-23T22:25:14.655Z,2.00
2023-10-23T22:27:45.431Z,2.00
2023-10-23T22:30:16.742Z,1.30
2023-10-23T22:32:57.172Z,1.10
2023-10-23T22:35:38.282Z,1.10
2023-10-23T22:38:09.688Z,1.00
2023-10-23T22:40:40.951Z,1.80
2023-10-23T22:43:12.910Z,2.10
2023-10-23T22:45:59.230Z,1.80
2023-10-23T22:48:33.767Z,1.50
2023-10-23T22:51:05.301Z,1.70
2023-10-23T22:53:38.387Z,1.60
2023-10-23T22:56:12.895Z,1.90
2023-10-23T22:58:44.510Z,2.60
2023-10-23T23:01:16.370Z,2.00
2023-10-23T23:03:48.216Z,1.20
2023-10-23T23:06:23.831Z,1.20
2023-10-23T23:08:57.812Z,1.70
2023-10-23T23:11:29.426Z,1.40
2023-10-23T23:14:00.935Z,1.30
2023-10-23T23:16:35.350Z,1.00
2023-10-23T23:19:10.199Z,1.30
2023-10-23T23:21:44.483Z,0.90
2023-10-23T23:24:15.208Z,1.40
2023-10-23T23:26:46.017Z,1.00
2023-10-23T23:29:16.800Z,1.30
2023-10-23T23:31:47.644Z,1.10
2023-10-23T23:34:18.592Z,2.20
2023-10-23T23:36:49.758Z,1.70
2023-10-23T23:39:20.486Z,1.40
2023-10-23T23:41:51.399Z,1.30
2023-10-23T23:44:22.214Z,1.20
2023-10-23T23:46:53.045Z,1.30
2023-10-23T23:49:23.918Z,1.40
2023-10-23T23:51:55.269Z,1.30
2023-10-23T23:54:26.079Z,0.90
2023-10-23T23:56:57.240Z,1.10
2023-10-23T23:59:27.942Z,1.40
